Terminal Aerodrome Forecast
Issued by NWS Topeka, KS

Home | Current Version | Previous Version | Text Only | Print | Product List | Glossary Off
Versions: 1 2 3 4 5 6 7 8 9 10 11 12 13 14 15 16 17 18 19 20 21

000
FTUS43 KTOP 221729
TAFTOP
TAF
KTOP 221729Z 2218/2318 23011KT P6SM BKN200
     FM222100 26010KT P6SM SCT200
     FM222300 28005KT P6SM SCT250
     FM230700 05004KT P6SM SCT250
     FM231400 08011G21KT P6SM VCSH OVC100=

USA.gov is the U.S. government's official web portal to all federal, state and local government web resources and services.